createdAt,value
2023-05-21T00:00:08.161Z,23.30
2023-05-21T00:01:08.196Z,23.32
2023-05-21T00:02:08.246Z,23.33
2023-05-21T00:03:08.339Z,23.33
2023-05-21T00:04:08.346Z,23.34
2023-05-21T00:05:08.411Z,23.34
2023-05-21T00:06:08.509Z,23.35
2023-05-21T00:07:08.493Z,23.34
2023-05-21T00:08:08.552Z,23.34
2023-05-21T00:09:08.620Z,23.34
2023-05-21T00:10:08.846Z,23.34
2023-05-21T00:11:08.719Z,23.35
2023-05-21T00:12:08.788Z,23.34
2023-05-21T00:13:08.836Z,23.35
2023-05-21T00:14:08.895Z,23.35
2023-05-21T00:15:08.951Z,23.34
2023-05-21T00:16:09.030Z,23.34
2023-05-21T00:17:09.061Z,23.34
2023-05-21T00:18:09.203Z,23.34
2023-05-21T00:19:09.254Z,23.34
2023-05-21T00:20:09.258Z,23.33
2023-05-21T00:21:09.323Z,23.33
2023-05-21T00:22:09.397Z,23.33
2023-05-21T00:23:09.427Z,23.33
2023-05-21T00:24:09.495Z,23.34
2023-05-21T00:25:09.573Z,23.33
2023-05-21T00:26:09.618Z,23.33
2023-05-21T00:27:09.687Z,23.33
2023-05-21T00:28:09.768Z,23.33
2023-05-21T00:29:09.799Z,23.33
2023-05-21T00:30:09.866Z,23.33
2023-05-21T00:31:09.974Z,23.32
2023-05-21T00:32:10.046Z,23.32
2023-05-21T00:33:10.102Z,23.32
2023-05-21T00:34:10.166Z,23.32
2023-05-21T00:35:10.189Z,23.31
2023-05-21T00:36:10.255Z,23.32
2023-05-21T00:37:10.299Z,23.31
2023-05-21T00:38:10.354Z,23.31
2023-05-21T00:39:10.422Z,23.30
2023-05-21T00:40:10.488Z,23.31
2023-05-21T00:41:10.551Z,23.31
2023-05-21T00:42:10.605Z,23.31
2023-05-21T00:43:10.667Z,23.31
2023-05-21T00:44:10.772Z,23.31
2023-05-21T00:45:10.796Z,23.30
2023-05-21T00:46:10.987Z,23.30
2023-05-21T00:47:10.906Z,23.30
2023-05-21T00:48:10.961Z,23.29
2023-05-21T00:49:11.028Z,23.30
2023-05-21T00:50:11.094Z,23.30
2023-05-21T00:51:11.150Z,23.29
2023-05-21T00:52:11.209Z,23.29
2023-05-21T00:53:11.273Z,23.29
2023-05-21T00:54:11.328Z,23.28
2023-05-21T00:55:11.402Z,23.29
2023-05-21T00:56:11.466Z,23.28
2023-05-21T00:57:11.520Z,23.28
2023-05-21T00:58:11.579Z,23.27
2023-05-21T00:59:11.638Z,23.28
2023-05-21T01:00:11.733Z,23.28
2023-05-21T01:01:11.801Z,23.27
2023-05-21T01:02:11.887Z,23.27
2023-05-21T01:03:12.053Z,23.27
2023-05-21T01:04:11.941Z,23.27
2023-05-21T01:05:12.012Z,23.27
2023-05-21T01:06:12.073Z,23.27
2023-05-21T01:07:12.129Z,23.27
2023-05-21T01:08:12.194Z,23.26
2023-05-21T01:09:12.334Z,23.26
2023-05-21T01:10:12.328Z,23.26
2023-05-21T01:11:12.386Z,23.26
2023-05-21T01:12:12.474Z,23.26
2023-05-21T01:13:12.516Z,23.26
2023-05-21T01:14:12.592Z,23.25
2023-05-21T01:15:12.650Z,23.26
2023-05-21T01:16:12.770Z,23.25
2023-05-21T01:17:12.904Z,23.25
2023-05-21T01:18:12.865Z,23.25
2023-05-21T01:19:13.009Z,23.25
2023-05-21T01:20:13.010Z,23.25
2023-05-21T01:21:13.034Z,23.25
2023-05-21T01:22:13.110Z,23.25
2023-05-21T01:23:13.171Z,23.25
2023-05-21T01:24:13.243Z,23.25
2023-05-21T01:25:13.316Z,23.25
2023-05-21T01:26:13.375Z,23.25
2023-05-21T01:27:13.450Z,23.25
2023-05-21T01:28:13.505Z,23.25
2023-05-21T01:29:13.573Z,23.24
2023-05-21T01:30:13.646Z,23.24
2023-05-21T01:31:13.746Z,23.25
2023-05-21T01:32:13.806Z,23.24
2023-05-21T01:33:13.887Z,23.24
2023-05-21T01:34:13.926Z,23.23
2023-05-21T01:35:13.991Z,23.23
2023-05-21T01:36:14.057Z,23.23
2023-05-21T01:37:14.130Z,23.23
2023-05-21T01:38:14.202Z,23.23
2023-05-21T01:39:14.304Z,23.23
2023-05-21T01:40:14.340Z,23.22
2023-05-21T01:41:14.423Z,23.22
2023-05-21T01:42:14.486Z,23.23
2023-05-21T01:43:14.535Z,23.22
2023-05-21T01:44:14.609Z,23.23
2023-05-21T01:45:14.679Z,23.22
2023-05-21T01:46:14.808Z,23.22
2023-05-21T01:47:14.823Z,23.22
2023-05-21T01:48:14.911Z,23.22
2023-05-21T01:49:14.953Z,23.22
2023-05-21T01:50:15.040Z,23.21
2023-05-21T01:51:15.105Z,23.21
2023-05-21T01:52:15.192Z,23.21
2023-05-21T01:53:15.246Z,23.21
2023-05-21T01:54:15.314Z,23.22
2023-05-21T01:55:15.392Z,23.21
2023-05-21T01:56:15.444Z,23.21
2023-05-21T01:57:15.516Z,23.21
2023-05-21T01:58:15.579Z,23.20
2023-05-21T01:59:15.651Z,23.21
2023-05-21T02:00:15.725Z,23.21
2023-05-21T02:01:15.787Z,23.21
2023-05-21T02:02:16.037Z,23.21
2023-05-21T02:03:16.010Z,23.20
2023-05-21T02:04:16.038Z,23.20
2023-05-21T02:05:16.223Z,23.20
2023-05-21T02:06:16.216Z,23.20
2023-05-21T02:07:16.226Z,23.20
2023-05-21T02:08:16.316Z,23.20
2023-05-21T02:09:16.354Z,23.19
2023-05-21T02:10:16.431Z,23.19
2023-05-21T02:11:16.496Z,23.20
2023-05-21T02:12:16.570Z,23.19
2023-05-21T02:13:16.660Z,23.19
2023-05-21T02:14:16.717Z,23.19
2023-05-21T02:15:16.795Z,23.19
2023-05-21T02:16:16.888Z,23.19
2023-05-21T02:17:16.914Z,23.19
2023-05-21T02:18:17.108Z,23.19
2023-05-21T02:19:17.081Z,23.19
2023-05-21T02:20:17.165Z,23.18
2023-05-21T02:21:17.201Z,23.19
2023-05-21T02:22:17.267Z,23.18
2023-05-21T02:23:17.357Z,23.18
2023-05-21T02:24:17.416Z,23.17
2023-05-21T02:25:17.498Z,23.18
2023-05-21T02:26:17.570Z,23.18
2023-05-21T02:27:17.643Z,23.17
2023-05-21T02:28:17.716Z,23.17
2023-05-21T02:29:17.782Z,23.17
2023-05-21T02:30:17.866Z,23.17
2023-05-21T02:31:18.606Z,23.17
2023-05-21T02:32:17.995Z,23.16
2023-05-21T02:33:18.059Z,23.16
2023-05-21T02:34:18.243Z,23.16
2023-05-21T02:35:18.204Z,23.15
2023-05-21T02:36:18.289Z,23.16
2023-05-21T02:37:18.343Z,23.16
2023-05-21T02:38:18.402Z,23.16
2023-05-21T02:39:18.448Z,23.16
2023-05-21T02:40:18.544Z,23.15
2023-05-21T02:41:18.602Z,23.15
2023-05-21T02:42:18.672Z,23.16
2023-05-21T02:43:18.749Z,23.15
2023-05-21T02:44:18.821Z,23.15
2023-05-21T02:45:18.890Z,23.16
2023-05-21T02:46:18.997Z,23.16
2023-05-21T02:47:19.066Z,23.16
2023-05-21T02:48:19.105Z,23.15
2023-05-21T02:49:19.220Z,23.15
2023-05-21T02:50:19.259Z,23.15
2023-05-21T02:51:19.337Z,23.15
2023-05-21T02:52:19.443Z,23.15
2023-05-21T02:53:19.509Z,23.14
2023-05-21T02:54:19.574Z,23.14
2023-05-21T02:55:19.644Z,23.14
2023-05-21T02:56:19.706Z,23.14
2023-05-21T02:57:19.763Z,23.13
2023-05-21T02:58:19.846Z,23.13
2023-05-21T02:59:19.911Z,23.14
2023-05-21T03:00:20.011Z,23.14
2023-05-21T03:01:20.123Z,23.14
2023-05-21T03:02:20.199Z,23.14
2023-05-21T03:03:20.373Z,23.13
2023-05-21T03:04:20.276Z,23.14
2023-05-21T03:05:20.354Z,23.13
2023-05-21T03:06:20.432Z,23.13
2023-05-21T03:07:20.500Z,23.13
2023-05-21T03:08:20.597Z,23.12
2023-05-21T03:09:20.662Z,23.13
2023-05-21T03:10:20.732Z,23.12
2023-05-21T03:11:20.807Z,23.13
2023-05-21T03:12:20.896Z,23.12
2023-05-21T03:13:20.993Z,23.12
2023-05-21T03:14:21.046Z,23.12
2023-05-21T03:15:21.126Z,23.12
2023-05-21T03:16:21.242Z,23.12
2023-05-21T03:17:21.338Z,23.12
2023-05-21T03:18:21.361Z,23.11
2023-05-21T03:19:21.474Z,23.12
2023-05-21T03:20:21.480Z,23.11
2023-05-21T03:21:21.555Z,23.11
2023-05-21T03:22:21.642Z,23.11
2023-05-21T03:23:21.684Z,23.11
2023-05-21T03:24:21.751Z,23.11
2023-05-21T03:25:21.777Z,23.11
2023-05-21T03:26:21.835Z,23.10
2023-05-21T03:27:21.901Z,23.10
2023-05-21T03:28:21.982Z,23.10
2023-05-21T03:29:22.065Z,23.10
2023-05-21T03:30:22.132Z,23.11
2023-05-21T03:31:22.278Z,23.10
2023-05-21T03:32:22.528Z,23.09
2023-05-21T03:33:22.338Z,23.09
2023-05-21T03:34:22.380Z,23.09
2023-05-21T03:35:22.435Z,23.09
2023-05-21T03:36:22.485Z,23.09
2023-05-21T03:37:22.562Z,23.09
2023-05-21T03:38:21.682Z,23.09
2023-05-21T03:39:22.763Z,23.11
2023-05-21T03:40:22.945Z,23.09
2023-05-21T03:41:22.849Z,23.09
2023-05-21T03:42:22.922Z,23.09
2023-05-21T03:43:22.010Z,23.09
2023-05-21T03:44:23.065Z,23.09
2023-05-21T03:45:23.125Z,23.09
2023-05-21T03:46:23.207Z,23.09
2023-05-21T03:47:23.312Z,23.09
2023-05-21T03:48:23.357Z,23.08
2023-05-21T03:49:23.440Z,23.08
2023-05-21T03:50:23.514Z,23.08
2023-05-21T03:51:23.613Z,23.08
2023-05-21T03:52:23.642Z,23.08
2023-05-21T03:53:23.717Z,23.08
2023-05-21T03:54:23.795Z,23.08
2023-05-21T03:55:23.856Z,23.07
2023-05-21T03:56:23.942Z,23.07
2023-05-21T03:57:24.000Z,23.08
2023-05-21T03:58:24.062Z,23.07
2023-05-21T03:59:24.145Z,23.07
2023-05-21T04:00:24.254Z,23.06
2023-05-21T04:01:24.293Z,23.07
2023-05-21T04:02:24.437Z,23.07
2023-05-21T04:03:24.556Z,23.07
2023-05-21T04:04:24.486Z,23.07
2023-05-21T04:05:24.527Z,23.07
2023-05-21T04:06:24.553Z,23.07
2023-05-21T04:07:24.612Z,23.07
2023-05-21T04:08:24.653Z,23.07
2023-05-21T04:09:24.695Z,23.06
2023-05-21T04:10:24.740Z,23.07
2023-05-21T04:11:24.802Z,23.07
2023-05-21T04:12:24.898Z,23.07
2023-05-21T04:13:24.940Z,23.06
2023-05-21T04:14:24.999Z,23.06
2023-05-21T04:15:25.049Z,23.06
2023-05-21T04:16:25.160Z,23.06
2023-05-21T04:17:25.182Z,23.07
2023-05-21T04:18:25.171Z,23.06
2023-05-21T04:19:25.316Z,23.06
2023-05-21T04:20:25.254Z,23.06
2023-05-21T04:21:25.280Z,23.06
2023-05-21T04:22:25.369Z,23.06
2023-05-21T04:23:25.385Z,23.07
2023-05-21T04:24:25.452Z,23.07
2023-05-21T04:25:25.503Z,23.06
2023-05-21T04:26:25.542Z,23.06
2023-05-21T04:27:25.602Z,23.07
2023-05-21T04:28:25.674Z,23.06
2023-05-21T04:29:25.708Z,23.06
2023-05-21T04:30:25.786Z,23.06
2023-05-21T04:31:25.973Z,23.06
2023-05-21T04:32:25.994Z,23.06
2023-05-21T04:33:25.997Z,23.05
2023-05-21T04:34:26.039Z,23.06
2023-05-21T04:35:26.136Z,23.06
2023-05-21T04:36:26.183Z,23.06
2023-05-21T04:37:26.253Z,23.06
2023-05-21T04:38:26.337Z,23.07
2023-05-21T04:39:26.386Z,23.07
2023-05-21T04:40:26.450Z,23.06
2023-05-21T04:41:26.524Z,23.07
2023-05-21T04:42:26.574Z,23.07
2023-05-21T04:43:26.743Z,23.06
2023-05-21T04:44:26.714Z,23.07
2023-05-21T04:45:26.750Z,23.07
2023-05-21T04:46:26.860Z,23.07
2023-05-21T04:47:26.902Z,23.07
2023-05-21T04:48:27.120Z,23.07
2023-05-21T04:49:26.992Z,23.07
2023-05-21T04:50:27.083Z,23.07
2023-05-21T04:51:27.130Z,23.07
2023-05-21T04:52:27.185Z,23.07
2023-05-21T04:53:27.235Z,23.07
2023-05-21T04:54:27.293Z,23.07
2023-05-21T04:55:27.373Z,23.07
2023-05-21T04:56:27.412Z,23.06
2023-05-21T04:57:27.466Z,23.07
2023-05-21T04:58:27.501Z,23.06
2023-05-21T04:59:27.552Z,23.06
2023-05-21T05:00:27.644Z,23.07
2023-05-21T05:01:27.766Z,23.06
2023-05-21T05:02:27.816Z,23.06
2023-05-21T05:03:27.867Z,23.07
2023-05-21T05:04:27.866Z,23.07
2023-05-21T05:05:27.932Z,23.07
2023-05-21T05:06:27.990Z,23.07
2023-05-21T05:07:28.032Z,23.07
2023-05-21T05:08:28.092Z,23.07
2023-05-21T05:09:28.158Z,23.06
2023-05-21T05:10:28.216Z,23.06
2023-05-21T05:11:28.276Z,23.06
2023-05-21T05:12:28.343Z,23.06
2023-05-21T05:13:28.442Z,23.06
2023-05-21T05:14:28.512Z,23.06
2023-05-21T05:15:28.603Z,23.06
2023-05-21T05:16:28.719Z,23.06
2023-05-21T05:17:28.757Z,23.06
2023-05-21T05:18:28.813Z,23.06
2023-05-21T05:19:29.073Z,23.05
2023-05-21T05:20:28.952Z,23.06
2023-05-21T05:21:29.004Z,23.05
2023-05-21T05:22:29.064Z,23.05
2023-05-21T05:23:29.152Z,23.06
2023-05-21T05:24:29.180Z,23.06
2023-05-21T05:25:29.235Z,23.06
2023-05-21T05:26:29.313Z,23.06
2023-05-21T05:27:29.362Z,23.06
2023-05-21T05:28:29.438Z,23.05
2023-05-21T05:29:29.534Z,23.06
2023-05-21T05:30:29.580Z,23.05
2023-05-21T05:31:29.674Z,23.05
2023-05-21T05:32:29.733Z,23.06
2023-05-21T05:33:29.768Z,23.05
2023-05-21T05:34:29.858Z,23.05
2023-05-21T05:35:29.917Z,23.06
2023-05-21T05:36:30.064Z,23.06
2023-05-21T05:37:30.059Z,23.06
2023-05-21T05:38:30.126Z,23.06
2023-05-21T05:39:30.206Z,23.06
2023-05-21T05:40:30.277Z,23.06
2023-05-21T05:41:30.375Z,23.07
2023-05-21T05:42:30.383Z,23.06
2023-05-21T05:43:30.414Z,23.06
2023-05-21T05:44:30.477Z,23.05
2023-05-21T05:45:30.501Z,23.06
2023-05-21T05:46:30.614Z,23.06
2023-05-21T05:47:30.687Z,23.06
2023-05-21T05:48:30.747Z,23.06
2023-05-21T05:49:30.794Z,23.06
2023-05-21T05:50:30.890Z,23.06
2023-05-21T05:51:30.927Z,23.07
2023-05-21T05:52:30.958Z,23.06
2023-05-21T05:53:31.015Z,23.06
2023-05-21T05:54:31.102Z,23.07
2023-05-21T05:55:31.167Z,23.07
2023-05-21T05:56:31.208Z,23.07
2023-05-21T05:57:31.274Z,23.06
2023-05-21T05:58:31.324Z,23.07
2023-05-21T05:59:31.364Z,23.06
2023-05-21T06:00:31.409Z,23.07
2023-05-21T06:01:31.492Z,23.07
2023-05-21T06:02:31.617Z,23.07
2023-05-21T06:03:31.869Z,23.08
2023-05-21T06:04:31.672Z,23.08
2023-05-21T06:05:31.731Z,23.08
2023-05-21T06:06:32.215Z,23.08
2023-05-21T06:07:31.770Z,23.07
2023-05-21T06:08:31.780Z,23.08
2023-05-21T06:09:31.811Z,23.08
2023-05-21T06:10:31.833Z,23.08
2023-05-21T06:11:31.834Z,23.08
2023-05-21T06:12:31.873Z,23.08
2023-05-21T06:13:31.932Z,23.08
2023-05-21T06:14:31.993Z,23.08
2023-05-21T06:15:32.045Z,23.08
2023-05-21T06:16:32.118Z,23.08
2023-05-21T06:17:32.202Z,23.08
2023-05-21T06:18:32.275Z,23.08
2023-05-21T06:19:32.388Z,23.07
2023-05-21T06:20:32.424Z,23.07
2023-05-21T06:21:32.491Z,23.08
2023-05-21T06:22:32.521Z,23.08
2023-05-21T06:23:32.825Z,23.08
2023-05-21T06:24:32.652Z,23.08
2023-05-21T06:25:32.767Z,23.09
2023-05-21T06:26:32.808Z,23.09
2023-05-21T06:27:32.868Z,23.08
2023-05-21T06:28:32.939Z,23.09
2023-05-21T06:29:33.004Z,23.10
2023-05-21T06:30:33.076Z,23.10
2023-05-21T06:31:33.370Z,23.10
2023-05-21T06:32:33.391Z,23.10
2023-05-21T06:33:33.400Z,23.10
2023-05-21T06:34:33.338Z,23.11
2023-05-21T06:35:33.432Z,23.11
2023-05-21T06:36:33.511Z,23.11
2023-05-21T06:37:33.537Z,23.10
2023-05-21T06:38:33.584Z,23.12
2023-05-21T06:39:33.646Z,23.12
2023-05-21T06:40:33.696Z,23.11
2023-05-21T06:41:33.784Z,23.13
2023-05-21T06:42:33.908Z,23.13
2023-05-21T06:43:33.907Z,23.13
2023-05-21T06:44:33.973Z,23.13
2023-05-21T06:45:34.120Z,23.13
2023-05-21T06:46:34.180Z,23.13
2023-05-21T06:47:34.244Z,23.14
2023-05-21T06:48:34.269Z,23.14
2023-05-21T06:49:34.346Z,23.14
2023-05-21T06:50:34.408Z,23.15
2023-05-21T06:51:34.439Z,23.15
2023-05-21T06:52:34.639Z,23.15
2023-05-21T06:53:34.588Z,23.16
2023-05-21T06:54:34.660Z,23.16
2023-05-21T06:55:34.912Z,23.16
2023-05-21T06:56:34.813Z,23.16
2023-05-21T06:57:34.880Z,23.17
2023-05-21T06:58:34.954Z,23.16
2023-05-21T06:59:35.024Z,23.16
2023-05-21T07:00:35.117Z,23.16
2023-05-21T07:01:35.269Z,23.17
2023-05-21T07:02:35.308Z,23.17
2023-05-21T07:03:35.328Z,23.18
2023-05-21T07:04:35.401Z,23.17
2023-05-21T07:05:35.674Z,23.17
2023-05-21T07:06:35.531Z,23.18
2023-05-21T07:07:35.609Z,23.18
2023-05-21T07:08:35.685Z,23.18
2023-05-21T07:09:35.731Z,23.19
2023-05-21T07:10:35.862Z,23.19
2023-05-21T07:11:35.874Z,23.19
2023-05-21T07:12:35.946Z,23.20
2023-05-21T07:13:36.018Z,23.20
2023-05-21T07:14:36.098Z,23.20
2023-05-21T07:15:36.390Z,23.20
2023-05-21T07:16:36.273Z,23.20
2023-05-21T07:17:36.382Z,23.21
2023-05-21T07:18:36.373Z,23.20
2023-05-21T07:19:36.466Z,23.21
2023-05-21T07:20:36.522Z,23.21
2023-05-21T07:21:36.588Z,23.21
2023-05-21T07:22:36.679Z,23.22
2023-05-21T07:23:36.718Z,23.22
2023-05-21T07:24:36.817Z,23.22
2023-05-21T07:25:37.112Z,23.22
2023-05-21T07:26:36.936Z,23.23
2023-05-21T07:27:37.019Z,23.22
2023-05-21T07:28:37.081Z,23.23
2023-05-21T07:29:37.130Z,23.23
2023-05-21T07:30:37.205Z,23.23
2023-05-21T07:31:37.322Z,23.24
2023-05-21T07:32:37.413Z,23.24
2023-05-21T07:33:37.413Z,23.24
2023-05-21T07:34:37.489Z,23.24
2023-05-21T07:35:37.889Z,23.25
2023-05-21T07:36:37.629Z,23.25
2023-05-21T07:37:37.743Z,23.25
2023-05-21T07:38:37.780Z,23.26
2023-05-21T07:39:37.863Z,23.26
2023-05-21T07:40:37.962Z,23.25
2023-05-21T07:41:37.995Z,23.26
2023-05-21T07:42:38.055Z,23.26
2023-05-21T07:43:38.128Z,23.26
2023-05-21T07:44:38.197Z,23.27
2023-05-21T07:45:38.525Z,23.27
2023-05-21T07:46:38.373Z,23.27
2023-05-21T07:47:38.433Z,23.27
2023-05-21T07:48:38.489Z,23.28
2023-05-21T07:49:38.540Z,23.27
2023-05-21T07:50:38.625Z,23.28
2023-05-21T07:51:38.685Z,23.28
2023-05-21T07:52:38.845Z,23.28
2023-05-21T07:53:38.821Z,23.28
2023-05-21T07:54:38.878Z,23.28
2023-05-21T07:55:39.157Z,23.29
2023-05-21T07:56:39.034Z,23.29
2023-05-21T07:57:39.109Z,23.29
2023-05-21T07:58:39.175Z,23.29
2023-05-21T07:59:39.216Z,23.29
2023-05-21T08:00:39.297Z,23.30
2023-05-21T08:01:39.353Z,23.30
2023-05-21T08:02:39.467Z,23.30
2023-05-21T08:03:39.612Z,23.31
2023-05-21T08:04:41.195Z,23.31
2023-05-21T08:05:39.619Z,23.31
2023-05-21T08:06:39.550Z,23.31
2023-05-21T08:07:39.575Z,23.30
2023-05-21T08:08:39.554Z,23.31
2023-05-21T08:09:39.555Z,23.31
2023-05-21T08:10:39.561Z,23.32
2023-05-21T08:11:39.561Z,23.31
2023-05-21T08:12:39.581Z,23.31
2023-05-21T08:13:39.553Z,23.32
2023-05-21T08:14:39.547Z,23.32
2023-05-21T08:15:39.543Z,23.32
2023-05-21T08:16:39.596Z,23.33
2023-05-21T08:17:39.596Z,23.33
2023-05-21T08:18:39.534Z,23.33
2023-05-21T08:19:39.579Z,23.33
2023-05-21T08:20:39.534Z,23.33
2023-05-21T08:21:38.526Z,23.34
2023-05-21T08:22:39.547Z,23.34
2023-05-21T08:23:39.534Z,23.34
2023-05-21T08:24:39.529Z,23.34
2023-05-21T08:25:39.669Z,23.34
2023-05-21T08:26:39.545Z,23.35
2023-05-21T08:27:39.623Z,23.34
2023-05-21T08:28:39.725Z,23.35
2023-05-21T08:29:39.726Z,23.35
2023-05-21T08:30:39.782Z,23.35
2023-05-21T08:31:39.867Z,23.35
2023-05-21T08:32:39.941Z,23.36
2023-05-21T08:33:39.973Z,23.36
2023-05-21T08:34:40.037Z,23.37
2023-05-21T08:35:40.093Z,23.37
2023-05-21T08:36:40.151Z,23.37
2023-05-21T08:37:40.208Z,23.36
2023-05-21T08:38:40.271Z,23.37
2023-05-21T08:39:40.359Z,23.38
2023-05-21T08:40:40.402Z,23.38
2023-05-21T08:41:40.452Z,23.38
2023-05-21T08:42:40.508Z,23.38
2023-05-21T08:43:40.566Z,23.39
2023-05-21T08:44:40.686Z,23.38
2023-05-21T08:45:40.789Z,23.39
2023-05-21T08:46:40.748Z,23.39
2023-05-21T08:47:40.831Z,23.39
2023-05-21T08:48:40.913Z,23.40
2023-05-21T08:49:40.939Z,23.40
2023-05-21T08:50:41.051Z,23.40
2023-05-21T08:51:41.079Z,23.40
2023-05-21T08:52:41.130Z,23.40
2023-05-21T08:53:41.176Z,23.41
2023-05-21T08:54:41.229Z,23.41
2023-05-21T08:55:41.314Z,23.41
2023-05-21T08:56:41.349Z,23.42
2023-05-21T08:57:41.412Z,23.41
2023-05-21T08:58:41.474Z,23.41
2023-05-21T08:59:41.525Z,23.42
2023-05-21T09:00:41.860Z,23.43
2023-05-21T09:01:41.706Z,23.43
2023-05-21T09:02:41.709Z,23.42
2023-05-21T09:03:41.788Z,23.43
2023-05-21T09:04:41.849Z,23.43
2023-05-21T09:05:41.860Z,23.44
2023-05-21T09:06:41.928Z,23.44
2023-05-21T09:07:41.980Z,23.44
2023-05-21T09:08:42.035Z,23.44
2023-05-21T09:09:42.092Z,23.44
2023-05-21T09:10:42.150Z,23.44
2023-05-21T09:11:42.219Z,23.44
2023-05-21T09:12:42.267Z,23.45
2023-05-21T09:13:42.333Z,23.45
2023-05-21T09:14:42.389Z,23.45
2023-05-21T09:15:42.451Z,23.45
2023-05-21T09:16:42.684Z,23.45
2023-05-21T09:17:42.594Z,23.45
2023-05-21T09:18:42.673Z,23.45
2023-05-21T09:19:42.731Z,23.45
2023-05-21T09:20:42.722Z,23.46
2023-05-21T09:21:42.781Z,23.46
2023-05-21T09:22:42.835Z,23.46
2023-05-21T09:23:42.889Z,23.46
2023-05-21T09:24:42.953Z,23.47
2023-05-21T09:25:43.069Z,23.46
2023-05-21T09:26:43.060Z,23.47
2023-05-21T09:27:43.120Z,23.47
2023-05-21T09:28:43.161Z,23.46
2023-05-21T09:29:43.218Z,23.47
2023-05-21T09:30:43.281Z,23.47
2023-05-21T09:31:43.343Z,23.47
2023-05-21T09:32:43.498Z,23.48
2023-05-21T09:33:43.409Z,23.47
2023-05-21T09:34:43.470Z,23.48
2023-05-21T09:35:43.584Z,23.47
2023-05-21T09:36:43.599Z,23.48
2023-05-21T09:37:43.654Z,23.48
2023-05-21T09:38:43.685Z,23.49
2023-05-21T09:39:43.734Z,23.49
2023-05-21T09:40:43.778Z,23.49
2023-05-21T09:41:43.854Z,23.49
2023-05-21T09:42:43.890Z,23.50
2023-05-21T09:43:43.943Z,23.50
2023-05-21T09:44:44.000Z,23.50
2023-05-21T09:45:44.084Z,23.50
2023-05-21T09:46:44.128Z,23.50
2023-05-21T09:47:44.166Z,23.51
2023-05-21T09:48:44.243Z,23.51
2023-05-21T09:49:44.263Z,23.51
2023-05-21T09:50:44.306Z,23.51
2023-05-21T09:51:44.359Z,23.51
2023-05-21T09:52:44.440Z,23.52
2023-05-21T09:53:44.477Z,23.52
2023-05-21T09:54:44.519Z,23.52
2023-05-21T09:55:45.474Z,23.52
2023-05-21T09:56:44.621Z,23.52
2023-05-21T09:57:44.688Z,23.53
2023-05-21T09:58:44.695Z,23.53
2023-05-21T09:59:44.768Z,23.53
2023-05-21T10:00:44.786Z,23.53
2023-05-21T10:01:44.848Z,23.53
2023-05-21T10:02:44.946Z,23.53
2023-05-21T10:03:44.946Z,23.54
2023-05-21T10:04:45.049Z,23.53
2023-05-21T10:05:45.028Z,23.54
2023-05-21T10:06:45.072Z,23.54
2023-05-21T10:07:45.120Z,23.54
2023-05-21T10:08:45.165Z,23.54
2023-05-21T10:09:45.198Z,23.55
2023-05-21T10:10:45.280Z,23.55
2023-05-21T10:11:45.291Z,23.55
2023-05-21T10:12:45.332Z,23.55
2023-05-21T10:13:45.382Z,23.56
2023-05-21T10:14:45.432Z,23.57
2023-05-21T10:15:45.530Z,23.56
2023-05-21T10:16:45.580Z,23.56
2023-05-21T10:17:45.596Z,23.57
2023-05-21T10:18:45.685Z,23.57
2023-05-21T10:19:45.656Z,23.57
2023-05-21T10:20:45.765Z,23.57
2023-05-21T10:21:45.747Z,23.57
2023-05-21T10:22:45.798Z,23.57
2023-05-21T10:23:45.840Z,23.58
2023-05-21T10:24:45.887Z,23.58
2023-05-21T10:25:45.923Z,23.58
2023-05-21T10:26:45.979Z,23.58
2023-05-21T10:27:46.007Z,23.57
2023-05-21T10:28:46.048Z,23.58
2023-05-21T10:29:46.101Z,23.58
2023-05-21T10:30:46.119Z,23.58
2023-05-21T10:31:46.246Z,23.59
2023-05-21T10:32:46.325Z,23.58
2023-05-21T10:33:46.242Z,23.59
2023-05-21T10:34:46.279Z,23.59
2023-05-21T10:35:46.339Z,23.59
2023-05-21T10:36:46.406Z,23.61
2023-05-21T10:37:46.430Z,23.61
2023-05-21T10:38:46.452Z,23.62
2023-05-21T10:39:46.482Z,23.61
2023-05-21T10:40:46.536Z,23.62
2023-05-21T10:41:46.586Z,23.62
2023-05-21T10:42:46.625Z,23.62
2023-05-21T10:43:46.643Z,23.62
2023-05-21T10:44:46.685Z,23.62
2023-05-21T10:45:46.739Z,23.62
2023-05-21T10:46:46.761Z,23.62
2023-05-21T10:47:46.845Z,23.63
2023-05-21T10:48:46.853Z,23.63
2023-05-21T10:49:46.890Z,23.64
2023-05-21T10:50:46.914Z,23.63
2023-05-21T10:51:46.931Z,23.64
2023-05-21T10:52:47.007Z,23.64
2023-05-21T10:53:47.022Z,23.64
2023-05-21T10:54:47.060Z,23.65
2023-05-21T10:55:47.085Z,23.65
2023-05-21T10:56:47.111Z,23.65
2023-05-21T10:57:47.167Z,23.65
2023-05-21T10:58:47.193Z,23.66
2023-05-21T10:59:47.239Z,23.66
2023-05-21T11:00:47.332Z,23.66
2023-05-21T11:01:47.309Z,23.66
2023-05-21T11:02:47.354Z,23.66
2023-05-21T11:03:47.392Z,23.67
2023-05-21T11:04:47.390Z,23.67
2023-05-21T11:05:47.428Z,23.67
2023-05-21T11:06:47.484Z,23.68
2023-05-21T11:07:47.498Z,23.67
2023-05-21T11:08:47.627Z,23.68
2023-05-21T11:09:47.568Z,23.68
2023-05-21T11:10:47.609Z,23.68
2023-05-21T11:11:47.646Z,23.68
2023-05-21T11:12:47.675Z,23.68
2023-05-21T11:13:47.713Z,23.69
2023-05-21T11:14:47.746Z,23.69
2023-05-21T11:15:47.771Z,23.70
2023-05-21T11:16:47.981Z,23.70
2023-05-21T11:17:47.848Z,23.70
2023-05-21T11:18:47.903Z,23.70
2023-05-21T11:19:47.902Z,23.70
2023-05-21T11:20:47.919Z,23.71
2023-05-21T11:21:47.954Z,23.70
2023-05-21T11:22:47.971Z,23.72
2023-05-21T11:23:48.005Z,23.72
2023-05-21T11:24:50.532Z,23.72
2023-05-21T11:25:48.053Z,23.72
2023-05-21T11:26:48.031Z,23.72
2023-05-21T11:27:48.024Z,23.73
2023-05-21T11:28:48.031Z,23.73
2023-05-21T11:29:48.024Z,23.73
2023-05-21T11:30:48.018Z,23.73
2023-05-21T11:31:48.055Z,23.73
2023-05-21T11:32:48.036Z,23.73
2023-05-21T11:33:47.991Z,23.73
2023-05-21T11:34:48.022Z,23.74
2023-05-21T11:35:47.978Z,23.74
2023-05-21T11:36:47.983Z,23.74
2023-05-21T11:37:47.972Z,23.74
2023-05-21T11:38:47.970Z,23.75
2023-05-21T11:39:47.961Z,23.75
2023-05-21T11:40:47.979Z,23.75
2023-05-21T11:41:47.945Z,23.76
2023-05-21T11:42:47.935Z,23.76
2023-05-21T11:43:47.924Z,23.76
2023-05-21T11:44:47.949Z,23.75
2023-05-21T11:45:47.954Z,23.77
2023-05-21T11:46:47.934Z,23.77
2023-05-21T11:47:47.934Z,23.77
2023-05-21T11:48:47.888Z,23.77
2023-05-21T11:49:47.888Z,23.77
2023-05-21T11:50:47.875Z,23.78
2023-05-21T11:51:47.869Z,23.78
2023-05-21T11:52:47.856Z,23.78
2023-05-21T11:53:47.842Z,23.78
2023-05-21T11:54:47.837Z,23.79
2023-05-21T11:55:47.844Z,23.79
2023-05-21T11:56:47.847Z,23.78
2023-05-21T11:57:47.844Z,23.79
2023-05-21T11:58:47.811Z,23.79
2023-05-21T11:59:47.806Z,23.79
2023-05-21T12:00:47.859Z,23.79
2023-05-21T12:01:47.811Z,23.79
2023-05-21T12:02:47.930Z,23.80
2023-05-21T12:03:47.869Z,23.80
2023-05-21T12:04:47.759Z,23.80
2023-05-21T12:05:47.872Z,23.80
2023-05-21T12:06:47.750Z,23.82
2023-05-21T12:07:47.725Z,23.82
2023-05-21T12:08:47.712Z,23.81
2023-05-21T12:09:47.711Z,23.82
2023-05-21T12:10:47.700Z,23.82
2023-05-21T12:11:47.694Z,23.82
2023-05-21T12:12:55.767Z,23.82
2023-05-21T12:13:47.744Z,23.82
2023-05-21T12:14:47.698Z,23.82
2023-05-21T12:15:47.771Z,23.82
2023-05-21T12:16:47.721Z,23.83
2023-05-21T12:17:47.686Z,23.83
2023-05-21T12:18:47.683Z,23.83
2023-05-21T12:19:47.723Z,23.84
2023-05-21T12:20:47.652Z,23.83
2023-05-21T12:21:47.637Z,23.83
2023-05-21T12:22:47.639Z,23.84
2023-05-21T12:23:47.632Z,23.84
2023-05-21T12:24:47.642Z,23.84
2023-05-21T12:25:47.633Z,23.85
2023-05-21T12:26:47.609Z,23.84
2023-05-21T12:27:47.593Z,23.85
2023-05-21T12:28:47.647Z,23.85
2023-05-21T12:29:47.592Z,23.86
2023-05-21T12:30:47.632Z,23.86
2023-05-21T12:31:47.606Z,23.86
2023-05-21T12:32:47.642Z,23.86
2023-05-21T12:33:47.551Z,23.87
2023-05-21T12:34:47.551Z,23.86
2023-05-21T12:35:46.677Z,23.87
2023-05-21T12:36:47.524Z,23.88
2023-05-21T12:37:47.517Z,23.87
2023-05-21T12:38:47.503Z,23.88
2023-05-21T12:39:47.502Z,23.87
2023-05-21T12:40:47.495Z,23.88
2023-05-21T12:41:47.472Z,23.88
2023-05-21T12:42:47.485Z,23.88
2023-05-21T12:43:47.490Z,23.87
2023-05-21T12:44:47.572Z,23.88
2023-05-21T12:45:47.537Z,23.88
2023-05-21T12:46:47.554Z,23.89
2023-05-21T12:47:47.630Z,23.89
2023-05-21T12:48:47.572Z,23.89
2023-05-21T12:49:47.579Z,23.88
2023-05-21T12:50:47.604Z,23.88
2023-05-21T12:51:47.611Z,23.89
2023-05-21T12:52:47.636Z,23.90